Time;durP1;ratioP1;P1;durP2;ratioP2;P2;SDS_P1;SDS_P2;PMS_P1;PMS_P2;Temp;Humidity;BMP_temperature;BMP_pressure;BME280_temperature;BME280_humidity;BME280_pressure;Samples;Min_cycle;Max_cycle;Signal;HPM_P1;HPM_P2
2021/03/07 00:07:29;;;;;;;1999.90;999.90;;;;;;;5.92;66.71;102193.06;15772982;28;20168;-60
2021/03/07 00:15:01;;;;;;;1999.90;999.90;;;;;;;5.80;67.19;102187.69;15753742;28;20071;-61
2021/03/07 00:22:36;;;;;;;1999.90;999.90;;;;;;;5.94;67.58;102176.16;15761718;28;20047;-64
2021/03/07 00:30:10;;;;;;;1999.90;999.90;;;;;;;5.79;68.35;102169.41;15793152;28;20085;-59
2021/03/07 00:37:42;;;;;;;1999.90;999.90;;;;;;;5.74;68.32;102163.81;15781137;28;20152;-60
2021/03/07 00:45:17;;;;;;;1999.90;999.90;;;;;;;5.68;68.46;102156.56;15737922;28;20055;-61
2021/03/07 00:52:49;;;;;;;1999.90;999.90;;;;;;;5.79;68.10;102158.31;15774340;28;20121;-60
2021/03/07 01:00:23;;;;;;;1999.90;999.90;;;;;;;5.67;68.18;102146.59;15790648;28;20158;-62
2021/03/07 01:07:55;;;;;;;1999.90;999.90;;;;;;;5.48;69.34;102126.78;15788015;28;20055;-61
2021/03/07 01:15:30;;;;;;;1999.90;999.90;;;;;;;5.33;70.24;102114.75;15784533;28;20032;-62
2021/03/07 01:23:01;;;;;;;1999.90;999.90;;;;;;;5.35;69.52;102107.84;15767416;28;20040;-61
2021/03/07 01:30:36;;;;;;;1999.90;999.90;;;;;;;5.55;68.79;102098.88;15757728;28;20414;-59
2021/03/07 01:38:07;;;;;;;1999.90;999.90;;;;;;;5.67;67.62;102084.84;15770433;28;20496;-62
2021/03/07 01:45:42;;;;;;;1999.90;999.90;;;;;;;4.86;68.55;102074.75;15770397;28;20075;-62
2021/03/07 01:53:15;;;;;;;1999.90;999.90;;;;;;;5.47;66.04;102060.59;15757536;28;20048;-60
2021/03/07 02:00:48;;;;;;;1999.90;999.90;;;;;;;5.46;66.71;102057.00;15798578;28;20125;-60
2021/03/07 02:08:20;;;;;;;1999.90;999.90;;;;;;;5.64;66.13;102052.13;15727859;28;20051;-60
2021/03/07 02:15:55;;;;;;;1999.90;999.90;;;;;;;5.10;67.24;102030.13;15786086;28;20042;-60
2021/03/07 02:23:30;;;;;;;1999.90;999.90;;;;;;;4.89;66.38;102016.13;15771526;28;20111;-62
2021/03/07 02:31:03;;;;;;;1999.90;999.90;;;;;;;4.79;66.62;102016.03;15763710;28;20085;-60
2021/03/07 02:38:37;;;;;;;1999.90;999.90;;;;;;;5.06;65.13;102020.72;15743688;28;20051;-59
2021/03/07 02:46:14;;;;;;;1999.90;999.90;;;;;;;5.11;64.15;102015.22;15759248;28;20041;-59
2021/03/07 02:53:47;;;;;;;1999.90;999.90;;;;;;;5.22;63.50;102003.13;15776693;28;20041;-61
2021/03/07 03:01:20;;;;;;;1999.90;999.90;;;;;;;5.28;63.51;102015.06;15731490;28;20116;-62
2021/03/07 03:08:53;;;;;;;1999.90;999.90;;;;;;;5.39;63.54;102009.31;15751689;28;20048;-63
2021/03/07 03:16:28;;;;;;;1999.90;999.90;;;;;;;5.25;65.05;102002.59;15761380;28;20422;-61
2021/03/07 03:24:00;;;;;;;1999.90;999.90;;;;;;;4.59;66.22;101991.84;15779693;22;20055;-66
2021/03/07 03:31:33;;;;;;;1999.90;999.90;;;;;;;4.63;65.97;101990.19;15790271;28;20481;-65
2021/03/07 03:39:16;;;;;;;1999.90;999.90;;;;;;;4.82;65.74;101981.53;15807281;28;20055;-64
2021/03/07 03:46:51;;;;;;;1999.90;999.90;;;;;;;4.37;66.35;101985.50;15791034;28;20062;-64
2021/03/07 03:54:25;;;;;;;1999.90;999.90;;;;;;;4.43;66.07;101981.72;15807750;28;20500;-64
2021/03/07 04:01:59;;;;;;;1999.90;999.90;;;;;;;4.33;65.60;101967.78;15830037;28;20035;-64
2021/03/07 04:09:32;;;;;;;1999.90;999.90;;;;;;;4.44;64.67;101979.78;15787577;28;20052;-65
2021/03/07 04:17:05;;;;;;;1999.90;999.90;;;;;;;4.15;64.41;101960.69;15802612;28;20503;-65
2021/03/07 04:24:36;;;;;;;1999.90;999.90;;;;;;;4.11;64.61;101958.72;15800241;28;20112;-65
2021/03/07 04:32:10;;;;;;;1999.90;999.90;;;;;;;4.06;64.20;101967.75;15826163;28;20039;-67
2021/03/07 04:39:42;;;;;;;1999.90;999.90;;;;;;;4.19;63.64;101955.50;15844998;28;20522;-67
2021/03/07 04:47:14;;;;;;;1999.90;999.90;;;;;;;4.20;62.91;101957.16;15826967;28;20121;-66
2021/03/07 04:54:46;;;;;;;1999.90;999.90;;;;;;;4.02;62.75;101948.13;15835276;28;20123;-64
2021/03/07 05:02:18;;;;;;;1999.90;999.90;;;;;;;4.11;62.31;101945.72;15836657;28;20044;-66
2021/03/07 05:09:50;;;;;;;1999.90;999.90;;;;;;;4.20;62.20;101935.06;15806001;28;20040;-64
2021/03/07 05:17:24;;;;;;;1999.90;999.90;;;;;;;4.14;62.01;101922.28;15820077;28;20126;-63
2021/03/07 05:24:56;;;;;;;1999.90;999.90;;;;;;;4.30;61.29;101927.69;15833233;28;20044;-65
2021/03/07 05:32:28;;;;;;;1999.90;999.90;;;;;;;4.07;61.97;101913.38;15792271;28;20046;-65
2021/03/07 05:40:00;;;;;;;1999.90;999.90;;;;;;;4.07;62.12;101905.09;15814217;28;20040;-65
2021/03/07 05:47:32;;;;;;;1999.90;999.90;;;;;;;4.04;61.88;101904.50;15805902;28;20104;-64
2021/03/07 05:55:05;;;;;;;1999.90;999.90;;;;;;;4.09;61.37;101897.38;15811696;28;20051;-66
2021/03/07 06:02:38;;;;;;;1999.90;999.90;;;;;;;4.18;60.89;101906.84;15812504;28;20409;-67
2021/03/07 06:10:14;;;;;;;1999.90;999.90;;;;;;;4.05;60.38;101894.28;15801740;28;20732;-65
2021/03/07 06:17:53;;;;;;;1999.90;999.90;;;;;;;4.28;60.41;101890.38;15812935;28;20048;-66
2021/03/07 06:25:25;;;;;;;1999.90;999.90;;;;;;;3.90;60.35;101896.88;15810435;28;20032;-66
2021/03/07 06:33:00;;;;;;;1999.90;999.90;;;;;;;4.30;60.12;101877.97;15810932;28;20051;-64
2021/03/07 06:40:33;;;;;;;1999.90;999.90;;;;;;;3.87;60.17;101880.84;15800969;28;20071;-66
2021/03/07 06:48:07;;;;;;;1999.90;999.90;;;;;;;4.59;58.69;101880.41;15791574;28;20097;-65
2021/03/07 06:55:43;;;;;;;1999.90;999.90;;;;;;;4.57;58.51;101877.88;15801771;28;20044;-66
2021/03/07 07:03:16;;;;;;;1999.90;999.90;;;;;;;4.59;58.15;101880.41;15809258;28;20044;-67
2021/03/07 07:10:57;;;;;;;1999.90;999.90;;;;;;;4.53;58.25;101879.53;15808140;28;20072;-68
2021/03/07 07:18:31;;;;;;;1999.90;999.90;;;;;;;4.63;58.13;101876.00;15808389;28;20044;-68
2021/03/07 07:26:04;;;;;;;1999.90;999.90;;;;;;;4.51;57.72;101878.97;15805345;28;20036;-66
2021/03/07 07:33:44;;;;;;;1999.90;999.90;;;;;;;4.42;57.50;101869.50;15807133;28;20036;-68
2021/03/07 07:41:30;;;;;;;1999.90;999.90;;;;;;;4.69;57.10;101877.72;15806567;28;20506;-66
2021/03/07 07:49:03;;;;;;;1999.90;999.90;;;;;;;4.50;57.10;101863.47;15787930;28;20048;-67
2021/03/07 07:56:38;;;;;;;1999.90;999.90;;;;;;;4.60;57.16;101876.53;15805914;28;20040;-64
2021/03/07 08:04:37;;;;;;;1999.90;999.90;;;;;;;4.53;57.57;101862.94;15806412;28;20046;-65
2021/03/07 08:12:47;;;;;;;1999.90;999.90;;;;;;;4.54;56.64;101845.25;15793612;28;20039;-68
2021/03/07 08:20:54;;;;;;;1999.90;999.90;;;;;;;4.80;56.50;101851.81;15791307;28;20052;-67
2021/03/07 08:28:41;;;;;;;1999.90;999.90;;;;;;;4.59;57.08;101839.78;15786968;28;20381;-67
2021/03/07 08:36:15;;;;;;;1999.90;999.90;;;;;;;5.04;55.87;101832.84;15764038;28;20071;-68
2021/03/07 08:43:48;;;;;;;;;;;;;;;4.86;56.13;101831.34;15803339;28;20481;-67
2021/03/07 08:51:29;;;;;;;1999.90;999.90;;;;;;;4.76;56.23;101823.00;15804308;28;20369;-67
2021/03/07 08:59:02;;;;;;;1999.90;999.90;;;;;;;4.85;56.06;101826.94;15804009;28;20044;-67
2021/03/07 09:06:36;;;;;;;1999.90;999.90;;;;;;;5.58;55.41;101812.28;15803492;28;20056;-65
2021/03/07 09:14:08;;;;;;;1999.90;999.90;;;;;;;5.35;55.49;101813.59;15814209;28;20119;-66
2021/03/07 09:21:40;;;;;;;1999.90;999.90;;;;;;;5.10;55.95;101804.09;15826590;28;20040;-67
2021/03/07 09:29:12;;;;;;;1999.90;999.90;;;;;;;5.55;55.18;101793.47;15850623;22;20045;-62
2021/03/07 09:36:44;;;;;;;1999.90;999.90;;;;;;;5.13;56.06;101791.66;15813465;28;20036;-59
2021/03/07 09:44:18;;;;;;;1999.90;999.90;;;;;;;5.58;55.34;101785.44;15751143;28;20041;-58
2021/03/07 09:51:52;;;;;;;1999.90;999.90;;;;;;;5.37;55.13;101779.00;15763660;28;20155;-57
2021/03/07 09:59:32;;;;;;;1999.90;999.90;;;;;;;6.02;54.39;101787.72;15806304;28;20515;-60
2021/03/07 10:07:25;;;;;;;1999.90;999.90;;;;;;;6.16;54.07;101775.00;15806488;28;20039;-58
2021/03/07 10:14:58;;;;;;;1999.90;999.90;;;;;;;5.74;54.49;101778.81;15787686;28;20123;-58
2021/03/07 10:22:35;;;;;;;1999.90;999.90;;;;;;;5.85;53.98;101779.66;15755721;28;20048;-58
2021/03/07 10:30:10;;;;;;;1999.90;999.90;;;;;;;5.73;54.02;101782.69;15803616;28;20048;-57
2021/03/07 10:37:43;;;;;;;1999.90;999.90;;;;;;;5.75;54.90;101779.66;15801118;28;20047;-58
2021/03/07 10:45:17;;;;;;;1999.90;999.90;;;;;;;5.80;54.64;101774.94;15749341;28;20505;-59
2021/03/07 10:52:49;;;;;;;1999.90;999.90;;;;;;;5.88;54.72;101772.72;15753782;28;20082;-58
2021/03/07 11:00:23;;;;;;;1999.90;999.90;;;;;;;6.30;54.00;101772.47;15746005;28;20041;-61
2021/03/07 11:07:55;;;;;;;1999.90;999.90;;;;;;;5.93;54.66;101773.59;15735762;28;20473;-59
2021/03/07 11:15:29;;;;;;;1999.90;999.90;;;;;;;5.57;54.44;101756.06;15732395;28;20036;-60
2021/03/07 11:23:01;;;;;;;1999.90;999.90;;;;;;;6.17;54.34;101743.41;15761554;28;20135;-57
2021/03/07 11:30:34;;;;;;;1999.90;999.90;;;;;;;5.99;54.33;101728.16;15772479;28;20047;-60
2021/03/07 11:38:07;;;;;;;1999.90;999.90;;;;;;;5.91;52.46;101720.41;15765523;28;20116;-60
2021/03/07 11:45:41;;;;;;;1999.90;999.90;;;;;;;5.94;53.57;101706.00;15765244;28;20041;-61
2021/03/07 11:53:12;;;;;;;1999.90;999.90;;;;;;;5.95;52.86;101688.28;15775599;28;20058;-63
2021/03/07 12:00:45;;;;;;;1999.90;999.90;;;;;;;5.95;52.74;101693.00;15779267;28;20302;-59
2021/03/07 12:08:19;;;;;;;1999.90;999.90;;;;;;;5.82;53.38;101694.31;15738021;28;20040;-61
2021/03/07 12:15:52;;;;;;;1999.90;999.90;;;;;;;6.12;52.79;101685.19;15714921;28;20043;-59
2021/03/07 12:23:24;;;;;;;1999.90;999.90;;;;;;;6.08;53.42;101675.78;15709382;28;20098;-62
2021/03/07 12:30:56;;;;;;;1999.90;999.90;;;;;;;5.92;53.34;101655.56;15763322;28;20122;-60
2021/03/07 12:38:28;;;;;;;1999.90;999.90;;;;;;;5.78;53.72;101635.91;15768299;28;20110;-62
2021/03/07 12:46:00;;;;;;;1999.90;999.90;;;;;;;5.94;53.26;101627.56;15755739;28;20036;-64
2021/03/07 12:53:34;;;;;;;1999.90;999.90;;;;;;;6.44;52.30;101628.56;15728390;28;20494;-60
2021/03/07 13:01:07;;;;;;;1999.90;999.90;;;;;;;6.02;52.75;101614.00;15741129;28;20377;-58
2021/03/07 13:08:38;;;;;;;1999.90;999.90;;;;;;;5.80;53.62;101607.91;15762304;28;20053;-65
2021/03/07 13:16:11;;;;;;;1999.90;999.90;;;;;;;6.19;53.47;101599.81;15749210;28;20574;-60
2021/03/07 13:23:43;;;;;;;1999.90;999.90;;;;;;;5.78;54.45;101588.81;15726431;28;20041;-63
2021/03/07 13:31:16;;;;;;;1999.90;999.90;;;;;;;6.00;53.16;101579.38;15754854;28;20103;-58
2021/03/07 13:38:48;;;;;;;1999.90;999.90;;;;;;;6.00;53.13;101574.66;15715892;28;20505;-64
2021/03/07 13:46:21;;;;;;;1999.90;999.90;;;;;;;5.97;53.40;101564.16;15739877;28;20040;-64
2021/03/07 13:53:53;;;;;;;1999.90;999.90;;;;;;;5.96;53.06;101547.81;15767832;28;20120;-63
2021/03/07 14:01:26;;;;;;;1999.90;999.90;;;;;;;6.20;52.11;101543.28;15715638;28;20064;-61
2021/03/07 14:08:58;;;;;;;1999.90;999.90;;;;;;;6.12;52.35;101516.16;15755654;28;20399;-62
2021/03/07 14:16:30;;;;;;;1999.90;999.90;;;;;;;6.39;51.16;101524.06;15739866;28;20044;-61
2021/03/07 14:24:03;;;;;;;1999.90;999.90;;;;;;;6.43;52.15;101522.38;15745137;28;20142;-60
2021/03/07 14:31:36;;;;;;;1999.90;999.90;;;;;;;6.34;52.20;101494.41;15721999;28;20134;-60
2021/03/07 14:39:08;;;;;;;1999.90;999.90;;;;;;;6.72;51.83;101491.97;15711539;28;20045;-61
2021/03/07 14:46:41;;;;;;;1999.90;999.90;;;;;;;6.82;51.17;101489.13;15740387;28;20040;-65
2021/03/07 14:54:13;;;;;;;1999.90;999.90;;;;;;;6.35;51.97;101484.97;15741119;28;20040;-65
2021/03/07 15:01:46;;;;;;;1999.90;999.90;;;;;;;6.17;52.65;101476.50;15746403;28;20307;-60
2021/03/07 15:09:18;;;;;;;1999.90;999.90;;;;;;;6.42;52.16;101468.03;15727307;28;20075;-62
2021/03/07 15:16:50;;;;;;;1999.90;999.90;;;;;;;6.41;52.58;101460.00;15701017;28;20118;-61
2021/03/07 15:24:22;;;;;;;1999.90;999.90;;;;;;;6.59;51.66;101445.47;15722724;28;20139;-61
2021/03/07 15:31:55;;;;;;;1999.90;999.90;;;;;;;6.51;51.89;101432.22;15704481;22;662137;-66
2021/03/07 15:39:26;;;;;;;1999.90;999.90;;;;;;;6.42;51.72;101434.75;15737501;28;20048;-66
2021/03/07 15:46:59;;;;;;;1999.90;999.90;;;;;;;5.90;53.40;101435.31;15723425;28;20087;-65
2021/03/07 15:54:33;;;;;;;1999.90;999.90;;;;;;;6.36;52.29;101428.44;15763674;28;20036;-66
2021/03/07 16:02:07;;;;;;;1999.90;999.90;;;;;;;6.25;53.07;101426.00;15740908;28;20119;-66
2021/03/07 16:09:39;;;;;;;1999.90;999.90;;;;;;;6.37;52.29;101429.28;15746380;28;20076;-66
2021/03/07 16:17:11;;;;;;;1999.90;999.90;;;;;;;6.34;52.78;101433.41;15726411;28;20041;-66
2021/03/07 16:24:43;;;;;;;1999.90;999.90;;;;;;;6.04;53.71;101417.84;15745583;28;20044;-65
2021/03/07 16:32:16;;;;;;;1999.90;999.90;;;;;;;5.80;54.10;101403.78;15727326;28;20127;-68
2021/03/07 16:39:48;;;;;;;1999.90;999.90;;;;;;;5.68;54.15;101406.06;15729788;28;20080;-66
2021/03/07 16:47:21;;;;;;;1999.90;999.90;;;;;;;5.85;54.02;101402.13;15700127;28;20090;-68
2021/03/07 16:54:53;;;;;;;1999.90;999.90;;;;;;;5.88;54.72;101401.53;15679919;28;20044;-64
2021/03/07 17:02:26;;;;;;;1999.90;999.90;;;;;;;5.93;54.17;101394.03;15740904;28;20029;-66
2021/03/07 17:09:57;;;;;;;1999.90;999.90;;;;;;;5.67;55.10;101407.19;15754755;28;20044;-66
2021/03/07 17:17:31;;;;;;;1999.90;999.90;;;;;;;5.94;53.94;101408.72;15783805;28;20047;-66
2021/03/07 17:25:06;;;;;;;1999.90;999.90;;;;;;;5.81;55.20;101404.59;15753275;28;20036;-65
2021/03/07 17:32:39;;;;;;;1999.90;999.90;;;;;;;5.95;54.98;101405.69;15729223;28;20215;-66
2021/03/07 17:40:10;;;;;;;1999.90;999.90;;;;;;;6.08;53.95;101415.31;15738244;28;20052;-62
2021/03/07 17:47:43;;;;;;;1999.90;999.90;;;;;;;5.81;54.50;101404.59;15775396;28;20065;-64
2021/03/07 17:55:15;;;;;;;1999.90;999.90;;;;;;;5.94;54.69;101408.72;15776973;22;20101;-53
2021/03/07 18:02:49;;;;;;;1999.90;999.90;;;;;;;6.07;55.15;101410.88;15861438;28;20065;-56
2021/03/07 18:10:22;;;;;;;1999.90;999.90;;;;;;;5.96;54.67;101409.28;15864960;27;20067;-54
2021/03/07 18:17:55;;;;;;;1999.90;999.90;;;;;;;5.88;55.37;101407.06;15869286;28;20584;-60
2021/03/07 18:25:27;;;;;;;1999.90;999.90;;;;;;;5.78;56.02;101411.56;15849998;28;20515;-55
2021/03/07 18:33:00;;;;;;;1999.90;999.90;;;;;;;5.84;56.23;101398.53;15849254;28;20048;-56
2021/03/07 18:40:32;;;;;;;1999.90;999.90;;;;;;;5.96;56.32;101403.75;15841478;28;20096;-55
2021/03/07 18:48:05;;;;;;;1999.90;999.90;;;;;;;5.68;59.66;101402.47;15804593;28;20493;-56
2021/03/07 18:55:39;;;;;;;1999.90;999.90;;;;;;;5.50;59.98;101385.34;15792702;28;20046;-58
2021/03/07 19:03:13;;;;;;;1999.90;999.90;;;;;;;5.38;59.90;101379.31;15788572;28;20066;-60
2021/03/07 19:10:50;;;;;;;1999.90;999.90;;;;;;;5.51;59.42;101377.88;15786766;28;20044;-51
2021/03/07 19:18:23;;;;;;;1999.90;999.90;;;;;;;5.56;59.14;101375.09;15767700;28;20557;-58
2021/03/07 19:25:57;;;;;;;1999.90;999.90;;;;;;;5.82;58.89;101374.97;15747228;28;20622;-51
2021/03/07 19:33:32;;;;;;;1999.90;999.90;;;;;;;5.47;59.69;101369.31;15800462;28;20039;-56
2021/03/07 19:41:11;;;;;;;1999.90;999.90;;;;;;;5.58;60.37;101383.94;15782332;28;20048;-55
2021/03/07 19:48:50;;;;;;;1999.90;999.90;;;;;;;5.58;60.32;101386.72;15781707;28;20425;-54
2021/03/07 19:56:22;;;;;;;1999.90;999.90;;;;;;;5.72;60.50;101378.63;15779906;28;20073;-51
2021/03/07 20:04:00;;;;;;;1999.90;999.90;;;;;;;5.43;61.81;101384.03;15781042;28;20157;-51
2021/03/07 20:11:46;;;;;;;1999.90;999.90;;;;;;;5.51;62.32;101381.47;15779928;28;20483;-49
2021/03/07 20:19:18;;;;;;;1999.90;999.90;;;;;;;5.29;62.77;101378.25;15776856;28;20119;-53
2021/03/07 20:26:51;;;;;;;1999.90;999.90;;;;;;;5.44;63.07;101378.19;15778867;28;20074;-54
2021/03/07 20:34:31;;;;;;;1999.90;999.90;;;;;;;5.33;66.44;101384.88;15779199;28;20402;-51
2021/03/07 20:42:07;;;;;;;1999.90;999.90;;;;;;;5.40;66.74;101377.09;15762678;28;20044;-52
2021/03/07 20:49:43;;;;;;;1999.90;999.90;;;;;;;5.05;67.79;101382.75;15778313;28;20032;-50
2021/03/07 20:57:22;;;;;;;1999.90;999.90;;;;;;;5.41;66.93;101386.22;15786034;28;20094;-53
2021/03/07 21:04:56;;;;;;;1999.90;999.90;;;;;;;5.50;66.63;101390.06;15808263;28;20058;-53
2021/03/07 21:12:27;;;;;;;1999.90;999.90;;;;;;;5.11;67.31;101388.00;15806411;28;20434;-57
2021/03/07 21:20:06;;;;;;;1999.90;999.90;;;;;;;5.46;67.08;101375.97;15842303;28;20438;-56
2021/03/07 21:27:38;;;;;;;1999.90;999.90;;;;;;;5.35;67.69;101388.19;15859376;28;20061;-52
2021/03/07 21:35:12;;;;;;;1999.90;999.90;;;;;;;5.48;68.26;101382.06;15794826;28;20035;-53
2021/03/07 21:42:43;;;;;;;1999.90;999.90;;;;;;;5.21;69.42;101387.16;15851324;28;20152;-52
2021/03/07 21:50:16;;;;;;;1999.90;999.90;;;;;;;5.50;69.75;101401.97;15868311;28;20047;-53
2021/03/07 21:57:47;;;;;;;1999.90;999.90;;;;;;;5.17;72.63;101397.91;15845532;28;20107;-53
2021/03/07 22:05:20;;;;;;;1999.90;999.90;;;;;;;5.22;71.88;101414.53;15808797;28;20055;-54
2021/03/07 22:12:52;;;;;;;1999.90;999.90;;;;;;;5.44;71.85;101429.97;15831784;28;20036;-53
2021/03/07 22:20:25;;;;;;;1999.90;999.90;;;;;;;5.10;72.92;101424.22;15842533;28;20044;-51
2021/03/07 22:27:56;;;;;;;1999.90;999.90;;;;;;;4.93;73.36;101419.00;15829377;28;20044;-52
2021/03/07 22:35:29;;;;;;;1999.90;999.90;;;;;;;4.97;73.39;101406.25;15840449;28;20133;-53
2021/03/07 22:43:00;;;;;;;1999.90;999.90;;;;;;;4.83;74.21;101411.53;15846164;28;20047;-54
2021/03/07 22:50:33;;;;;;;1999.90;999.90;;;;;;;4.74;74.65;101412.38;15833136;28;20067;-50
2021/03/07 22:58:05;;;;;;;1999.90;999.90;;;;;;;4.79;74.99;101415.94;15785313;28;20045;-53
2021/03/07 23:05:37;;;;;;;1999.90;999.90;;;;;;;4.97;74.55;101408.19;15803225;28;20051;-54
2021/03/07 23:13:08;;;;;;;1999.90;999.90;;;;;;;4.98;74.44;101405.16;15784311;28;20137;-53
2021/03/07 23:20:41;;;;;;;1999.90;999.90;;;;;;;4.99;74.97;101395.75;15802952;28;20319;-55
2021/03/07 23:28:13;;;;;;;1999.90;999.90;;;;;;;5.09;74.18;101398.50;15783331;28;20062;-52
2021/03/07 23:35:45;;;;;;;1999.90;999.90;;;;;;;4.99;75.16;101406.81;15783847;28;20492;-55
2021/03/07 23:43:17;;;;;;;1999.90;999.90;;;;;;;4.87;75.27;101403.50;15782136;28;20071;-54
2021/03/07 23:50:51;;;;;;;1999.90;999.90;;;;;;;5.33;73.61;101412.56;15764722;28;20476;-55
2021/03/07 23:58:22;;;;;;;1999.90;999.90;;;;;;;5.21;74.05;101417.59;15799621;28;20130;-50
